createdAt,value
2018-07-06T00:00:07.158Z,10.30
2018-07-06T00:01:07.135Z,11.40
2018-07-06T00:02:07.107Z,10.40
2018-07-06T00:03:07.084Z,10.50
2018-07-06T00:04:07.059Z,10.70
2018-07-06T00:05:07.033Z,9.70
2018-07-06T00:06:07.010Z,8.70
2018-07-06T00:07:06.986Z,8.50
2018-07-06T00:08:06.961Z,10.90
2018-07-06T00:09:06.937Z,12.20
2018-07-06T00:10:06.914Z,7.40
2018-07-06T00:11:06.969Z,13.30
2018-07-06T00:12:06.865Z,9.10
2018-07-06T00:13:06.848Z,7.90
2018-07-06T00:14:06.820Z,9.40
2018-07-06T00:15:06.806Z,9.30
2018-07-06T00:16:06.771Z,9.00
2018-07-06T00:17:06.748Z,11.20
2018-07-06T00:18:06.720Z,9.40
2018-07-06T00:19:06.696Z,9.90
2018-07-06T00:20:06.673Z,9.70
2018-07-06T00:21:06.652Z,9.80
2018-07-06T00:22:06.627Z,11.70
2018-07-06T00:23:06.602Z,7.70
2018-07-06T00:24:06.579Z,9.60
2018-07-06T00:25:06.555Z,9.70
2018-07-06T00:26:06.531Z,8.80
2018-07-06T00:27:06.506Z,8.40
2018-07-06T00:28:06.482Z,9.00
2018-07-06T00:29:06.455Z,9.40
2018-07-06T00:30:06.433Z,8.90
2018-07-06T00:31:06.411Z,9.20
2018-07-06T00:32:06.384Z,9.90
2018-07-06T00:33:06.362Z,9.10
2018-07-06T00:34:06.342Z,7.50
2018-07-06T00:35:06.322Z,10.80
2018-07-06T00:36:06.291Z,9.50
2018-07-06T00:37:06.264Z,10.10
2018-07-06T00:38:06.241Z,10.70
2018-07-06T00:39:06.219Z,9.70
2018-07-06T00:40:06.201Z,7.90
2018-07-06T00:41:06.167Z,10.80
2018-07-06T00:42:06.146Z,10.60
2018-07-06T00:43:06.118Z,11.20
2018-07-06T00:44:06.098Z,11.10
2018-07-06T00:45:06.075Z,8.50
2018-07-06T00:46:06.050Z,9.80
2018-07-06T00:47:06.031Z,9.10
2018-07-06T00:48:06.002Z,11.00
2018-07-06T00:49:05.976Z,8.70
2018-07-06T00:50:05.954Z,12.20
2018-07-06T00:51:05.927Z,11.80
2018-07-06T00:52:05.907Z,11.40
2018-07-06T00:53:05.884Z,10.50
2018-07-06T00:54:05.859Z,7.20
2018-07-06T00:55:05.834Z,10.90
2018-07-06T00:56:05.808Z,10.80
2018-07-06T00:57:05.787Z,9.50
2018-07-06T00:58:05.768Z,9.60
2018-07-06T00:59:05.742Z,10.00
2018-07-06T01:00:05.713Z,10.90
2018-07-06T01:01:05.687Z,9.00
2018-07-06T01:02:05.663Z,8.60
2018-07-06T01:03:05.639Z,8.40
2018-07-06T01:04:05.616Z,11.90
2018-07-06T01:05:05.593Z,9.50
2018-07-06T01:06:05.569Z,7.60
2018-07-06T01:07:05.544Z,8.60
2018-07-06T01:08:05.521Z,8.90
2018-07-06T01:09:05.494Z,7.80
2018-07-06T01:10:05.489Z,9.20
2018-07-06T01:11:05.447Z,8.40
2018-07-06T01:12:05.422Z,8.10
2018-07-06T01:13:05.408Z,7.10
2018-07-06T01:14:05.375Z,11.40
2018-07-06T01:15:05.354Z,9.40
2018-07-06T01:16:05.330Z,12.80
2018-07-06T01:17:05.303Z,10.30
2018-07-06T01:18:05.280Z,9.00
2018-07-06T01:19:05.256Z,8.40
2018-07-06T01:20:05.231Z,8.80
2018-07-06T01:21:05.206Z,7.80
2018-07-06T01:22:05.187Z,11.70
2018-07-06T01:23:05.161Z,7.30
2018-07-06T01:24:05.140Z,11.90
2018-07-06T01:25:05.113Z,9.40
2018-07-06T01:26:05.091Z,11.10
2018-07-06T01:27:05.064Z,7.80
2018-07-06T01:28:05.040Z,10.40
2018-07-06T01:29:05.016Z,9.50
2018-07-06T01:30:04.993Z,9.10
2018-07-06T01:31:04.967Z,9.90
2018-07-06T01:32:04.944Z,7.80
2018-07-06T01:33:04.918Z,11.90
2018-07-06T01:34:04.894Z,12.30
2018-07-06T01:35:04.872Z,9.20
2018-07-06T01:36:04.849Z,11.30
2018-07-06T01:37:04.824Z,12.20
2018-07-06T01:38:04.806Z,8.60
2018-07-06T01:39:04.777Z,11.00
2018-07-06T01:40:04.754Z,11.10
2018-07-06T01:41:04.726Z,8.10
2018-07-06T01:42:04.707Z,9.50
2018-07-06T01:43:04.678Z,9.50
2018-07-06T01:44:04.654Z,8.90
2018-07-06T01:45:04.639Z,10.60
2018-07-06T01:46:04.608Z,9.60
2018-07-06T01:47:04.586Z,8.10
2018-07-06T01:48:04.559Z,8.60
2018-07-06T01:49:04.535Z,9.90
2018-07-06T01:50:04.510Z,9.60
2018-07-06T01:51:04.485Z,10.50
2018-07-06T01:52:04.470Z,11.10
2018-07-06T01:53:04.439Z,9.70
2018-07-06T01:54:04.420Z,8.70
2018-07-06T01:55:04.392Z,9.70
2018-07-06T01:56:04.369Z,13.30
2018-07-06T01:57:04.342Z,13.00
2018-07-06T01:58:04.318Z,9.80
2018-07-06T01:59:04.294Z,9.70
2018-07-06T02:00:04.271Z,10.90
2018-07-06T02:01:04.251Z,10.60
2018-07-06T02:02:04.223Z,10.40
2018-07-06T02:03:04.198Z,10.40
2018-07-06T02:04:04.174Z,10.10
2018-07-06T02:05:04.152Z,9.80
2018-07-06T02:06:04.128Z,16.50
2018-07-06T02:07:04.107Z,11.90
2018-07-06T02:08:04.084Z,14.40
2018-07-06T02:09:04.055Z,10.30
2018-07-06T02:10:04.031Z,10.40
2018-07-06T02:11:04.006Z,12.60
2018-07-06T02:12:03.981Z,10.40
2018-07-06T02:13:03.960Z,12.80
2018-07-06T02:14:03.936Z,15.00
2018-07-06T02:15:03.917Z,11.00
2018-07-06T02:16:03.888Z,11.10
2018-07-06T02:17:03.863Z,18.10
2018-07-06T02:18:03.840Z,10.90
2018-07-06T02:19:03.817Z,10.70
2018-07-06T02:20:03.790Z,12.90
2018-07-06T02:21:03.765Z,13.20
2018-07-06T02:22:03.743Z,9.30
2018-07-06T02:23:03.720Z,10.80
2018-07-06T02:24:03.693Z,8.70
2018-07-06T02:25:03.672Z,10.80
2018-07-06T02:26:03.648Z,12.90
2018-07-06T02:27:03.622Z,11.50
2018-07-06T02:28:03.598Z,10.80
2018-07-06T02:29:03.573Z,13.20
2018-07-06T02:30:03.550Z,13.10
2018-07-06T02:31:03.529Z,11.00
2018-07-06T02:32:03.500Z,11.10
2018-07-06T02:33:03.477Z,8.90
2018-07-06T02:34:03.453Z,11.50
2018-07-06T02:35:03.429Z,12.50
2018-07-06T02:36:03.404Z,12.50
2018-07-06T02:37:03.387Z,12.90
2018-07-06T02:38:03.358Z,15.10
2018-07-06T02:39:03.333Z,9.90
2018-07-06T02:40:03.310Z,11.50
2018-07-06T02:41:03.284Z,13.00
2018-07-06T02:42:03.261Z,10.10
2018-07-06T02:43:03.237Z,12.30
2018-07-06T02:44:03.212Z,11.40
2018-07-06T02:45:03.196Z,12.30
2018-07-06T02:46:03.169Z,11.70
2018-07-06T02:47:03.142Z,10.90
2018-07-06T02:48:03.121Z,16.30
2018-07-06T02:49:03.102Z,10.40
2018-07-06T02:50:03.069Z,10.60
2018-07-06T02:51:03.048Z,12.70
2018-07-06T02:52:03.022Z,13.10
2018-07-06T02:53:03.003Z,11.30
2018-07-06T02:54:02.972Z,11.80
2018-07-06T02:55:04.196Z,13.60
2018-07-06T02:56:02.922Z,13.70
2018-07-06T02:57:02.910Z,11.20
2018-07-06T02:58:02.877Z,11.10
2018-07-06T02:59:02.853Z,13.40
2018-07-06T03:00:02.831Z,13.20
2018-07-06T03:01:02.810Z,15.60
2018-07-06T03:02:02.779Z,16.50
2018-07-06T03:03:02.760Z,11.40
2018-07-06T03:04:02.730Z,14.00
2018-07-06T03:05:02.707Z,14.30
2018-07-06T03:06:02.695Z,9.80
2018-07-06T03:07:02.658Z,14.90
2018-07-06T03:08:02.634Z,12.20
2018-07-06T03:09:02.612Z,12.90
2018-07-06T03:10:02.589Z,12.40
2018-07-06T03:11:02.566Z,10.20
2018-07-06T03:12:02.540Z,12.10
2018-07-06T03:13:02.517Z,12.50
2018-07-06T03:14:02.491Z,8.50
2018-07-06T03:15:02.467Z,7.30
2018-07-06T03:16:02.451Z,7.00
2018-07-06T03:17:02.418Z,9.10
2018-07-06T03:18:02.395Z,12.40
2018-07-06T03:19:02.371Z,10.40
2018-07-06T03:20:02.349Z,9.20
2018-07-06T03:21:02.323Z,9.90
2018-07-06T03:22:02.298Z,11.10
2018-07-06T03:23:02.275Z,11.80
2018-07-06T03:24:02.251Z,11.00
2018-07-06T03:25:02.224Z,9.90
2018-07-06T03:26:02.202Z,13.80
2018-07-06T03:27:02.188Z,13.60
2018-07-06T03:28:02.192Z,12.30
2018-07-06T03:29:02.130Z,13.30
2018-07-06T03:30:02.106Z,9.60
2018-07-06T03:31:02.080Z,9.30
2018-07-06T03:32:02.057Z,10.00
2018-07-06T03:33:02.039Z,10.80
2018-07-06T03:34:02.008Z,10.00
2018-07-06T03:35:01.983Z,16.30
2018-07-06T03:36:01.966Z,11.90
2018-07-06T03:37:01.936Z,9.60
2018-07-06T03:38:01.911Z,11.00
2018-07-06T03:39:01.885Z,12.50
2018-07-06T03:40:01.863Z,17.60
2018-07-06T03:41:01.840Z,14.60
2018-07-06T03:42:01.816Z,11.30
2018-07-06T03:43:01.792Z,11.00
2018-07-06T03:44:01.766Z,12.00
2018-07-06T03:45:01.756Z,12.20
2018-07-06T03:46:01.717Z,10.30
2018-07-06T03:47:01.699Z,12.80
2018-07-06T03:48:01.672Z,11.70
2018-07-06T03:49:01.646Z,11.10
2018-07-06T03:50:01.623Z,14.90
2018-07-06T03:51:01.598Z,14.10
2018-07-06T03:52:01.575Z,13.60
2018-07-06T03:53:01.549Z,12.00
2018-07-06T03:54:01.526Z,11.90
2018-07-06T03:55:01.558Z,13.00
2018-07-06T03:56:01.477Z,14.00
2018-07-06T03:57:01.455Z,12.70
2018-07-06T03:58:01.434Z,11.20
2018-07-06T03:59:01.706Z,11.20
2018-07-06T04:00:01.382Z,12.20
2018-07-06T04:01:01.383Z,15.30
2018-07-06T04:02:01.332Z,12.20
2018-07-06T04:03:01.307Z,12.60
2018-07-06T04:04:01.283Z,13.00
2018-07-06T04:05:01.265Z,11.90
2018-07-06T04:06:01.238Z,12.90
2018-07-06T04:07:01.213Z,14.00
2018-07-06T04:08:01.189Z,13.10
2018-07-06T04:09:01.166Z,12.00
2018-07-06T04:10:01.142Z,15.70
2018-07-06T04:11:01.117Z,16.30
2018-07-06T04:12:01.108Z,14.40
2018-07-06T04:13:01.067Z,14.00
2018-07-06T04:14:01.043Z,12.50
2018-07-06T04:15:01.018Z,20.40
2018-07-06T04:16:01.059Z,14.20
2018-07-06T04:17:00.976Z,15.60
2018-07-06T04:18:00.952Z,15.00
2018-07-06T04:19:00.925Z,12.00
2018-07-06T04:20:00.902Z,16.40
2018-07-06T04:21:00.875Z,14.90
2018-07-06T04:22:00.850Z,16.50
2018-07-06T04:23:00.827Z,12.70
2018-07-06T04:24:00.802Z,13.60
2018-07-06T04:25:00.781Z,15.40
2018-07-06T04:26:00.755Z,15.50
2018-07-06T04:27:00.730Z,15.90
2018-07-06T04:28:00.706Z,11.40
2018-07-06T04:29:00.684Z,13.80
2018-07-06T04:30:00.663Z,12.50
2018-07-06T04:31:00.636Z,13.10
2018-07-06T04:32:00.615Z,14.70
2018-07-06T04:33:00.585Z,16.70
2018-07-06T04:34:00.571Z,13.60
2018-07-06T04:35:00.536Z,15.20
2018-07-06T04:36:00.516Z,14.30
2018-07-06T04:37:00.491Z,17.90
2018-07-06T04:38:00.466Z,16.50
2018-07-06T04:39:00.440Z,14.80
2018-07-06T04:40:00.422Z,16.00
2018-07-06T04:41:00.392Z,16.70
2018-07-06T04:42:00.370Z,14.90
2018-07-06T04:43:00.345Z,14.50
2018-07-06T04:44:00.319Z,12.60
2018-07-06T04:45:00.294Z,20.90
2018-07-06T04:46:00.279Z,16.60
2018-07-06T04:47:00.246Z,16.20
2018-07-06T04:48:00.225Z,16.80
2018-07-06T04:49:00.201Z,16.90
2018-07-06T04:50:00.176Z,13.70
2018-07-06T04:51:00.195Z,15.00
2018-07-06T04:52:00.127Z,13.00
2018-07-06T04:53:00.102Z,17.30
2018-07-06T04:54:00.078Z,16.80
2018-07-06T04:55:00.065Z,12.70
2018-07-06T04:56:00.032Z,14.00
2018-07-06T04:57:00.007Z,17.60
2018-07-06T04:57:59.984Z,15.10
2018-07-06T04:58:59.956Z,17.90
2018-07-06T04:59:59.934Z,14.90
2018-07-06T05:00:59.914Z,15.20
2018-07-06T05:01:59.884Z,15.60
2018-07-06T05:02:59.873Z,21.40
2018-07-06T05:03:59.835Z,16.10
2018-07-06T05:04:59.813Z,14.10
2018-07-06T05:05:59.788Z,22.60
2018-07-06T05:06:59.768Z,16.40
2018-07-06T05:07:59.743Z,15.60
2018-07-06T05:08:59.714Z,12.60
2018-07-06T05:09:59.691Z,16.20
2018-07-06T05:10:59.668Z,19.20
2018-07-06T05:11:59.641Z,11.10
2018-07-06T05:12:59.618Z,16.60
2018-07-06T05:13:59.593Z,16.70
2018-07-06T05:14:59.569Z,12.30
2018-07-06T05:15:59.547Z,16.30
2018-07-06T05:16:59.599Z,15.30
2018-07-06T05:17:59.502Z,17.80
2018-07-06T05:18:59.478Z,14.80
2018-07-06T05:19:59.451Z,14.80
2018-07-06T05:20:59.427Z,15.80
2018-07-06T05:21:59.402Z,18.20
2018-07-06T05:22:59.377Z,13.90
2018-07-06T05:23:59.353Z,16.10
2018-07-06T05:24:59.331Z,22.90
2018-07-06T05:25:59.308Z,12.40
2018-07-06T05:26:59.284Z,16.10
2018-07-06T05:27:59.260Z,13.60
2018-07-06T05:28:59.236Z,15.50
2018-07-06T05:29:59.211Z,18.50
2018-07-06T05:30:59.188Z,19.00
2018-07-06T05:31:59.170Z,15.70
2018-07-06T05:32:59.142Z,12.10
2018-07-06T05:33:59.115Z,12.60
2018-07-06T05:34:59.090Z,17.80
2018-07-06T05:35:59.067Z,17.60
2018-07-06T05:36:59.046Z,18.30
2018-07-06T05:37:59.022Z,17.00
2018-07-06T05:38:58.996Z,14.50
2018-07-06T05:39:58.973Z,14.40
2018-07-06T05:40:58.947Z,14.20
2018-07-06T05:41:58.924Z,14.60
2018-07-06T05:42:58.900Z,17.00
2018-07-06T05:43:58.894Z,15.70
2018-07-06T05:44:58.854Z,22.30
2018-07-06T05:45:58.828Z,13.90
2018-07-06T05:46:58.805Z,14.40
2018-07-06T05:47:58.818Z,17.10
2018-07-06T05:48:58.758Z,18.00
2018-07-06T05:49:58.735Z,11.60
2018-07-06T05:50:58.710Z,16.00
2018-07-06T05:51:58.705Z,12.50
2018-07-06T05:52:58.663Z,9.70
2018-07-06T05:53:58.638Z,17.40
2018-07-06T05:54:58.614Z,10.40
2018-07-06T05:55:58.592Z,14.70
2018-07-06T05:56:58.572Z,16.90
2018-07-06T05:57:58.546Z,14.80
2018-07-06T05:58:58.521Z,12.90
2018-07-06T05:59:58.499Z,11.90
2018-07-06T06:00:58.476Z,14.50
2018-07-06T06:01:58.450Z,9.00
2018-07-06T06:02:58.427Z,15.10
2018-07-06T06:03:58.402Z,14.80
2018-07-06T06:04:58.381Z,13.60
2018-07-06T06:05:58.357Z,15.10
2018-07-06T06:06:58.333Z,11.80
2018-07-06T06:07:58.314Z,13.90
2018-07-06T06:08:58.287Z,11.70
2018-07-06T06:09:58.262Z,14.00
2018-07-06T06:10:58.246Z,16.60
2018-07-06T06:11:58.213Z,16.80
2018-07-06T06:12:58.193Z,18.50
2018-07-06T06:13:58.173Z,15.20
2018-07-06T06:14:58.144Z,13.90
2018-07-06T06:15:58.126Z,18.80
2018-07-06T06:16:58.097Z,15.40
2018-07-06T06:17:58.074Z,13.30
2018-07-06T06:18:58.220Z,13.00
2018-07-06T06:19:58.029Z,14.40
2018-07-06T06:20:58.005Z,19.10
2018-07-06T06:21:57.977Z,14.50
2018-07-06T06:22:57.968Z,13.30
2018-07-06T06:23:57.949Z,13.80
2018-07-06T06:24:57.932Z,16.60
2018-07-06T06:25:57.887Z,14.70
2018-07-06T06:26:58.064Z,16.40
2018-07-06T06:27:57.840Z,13.30
2018-07-06T06:28:57.817Z,19.70
2018-07-06T06:29:57.790Z,14.50
2018-07-06T06:30:57.768Z,16.20
2018-07-06T06:31:57.743Z,11.90
2018-07-06T06:32:57.758Z,17.50
2018-07-06T06:33:57.721Z,16.00
2018-07-06T06:34:57.673Z,18.70
2018-07-06T06:35:57.651Z,12.70
2018-07-06T06:36:57.636Z,15.60
2018-07-06T06:37:57.807Z,14.10
2018-07-06T06:38:57.783Z,15.70
2018-07-06T06:40:00.385Z,14.50
2018-07-06T06:40:57.735Z,20.80
2018-07-06T06:41:57.532Z,16.40
2018-07-06T06:42:57.486Z,15.50
2018-07-06T06:43:57.462Z,14.80
2018-07-06T06:44:57.441Z,13.90
2018-07-06T06:45:57.419Z,17.10
2018-07-06T06:46:57.395Z,15.50
2018-07-06T06:47:57.369Z,16.40
2018-07-06T06:48:57.346Z,14.80
2018-07-06T06:49:57.325Z,14.30
2018-07-06T06:50:57.300Z,18.40
2018-07-06T06:51:57.479Z,18.60
2018-07-06T06:52:57.309Z,15.40
2018-07-06T06:53:57.225Z,17.20
2018-07-06T06:54:57.211Z,15.70
2018-07-06T06:55:57.178Z,16.80
2018-07-06T06:56:57.158Z,15.10
2018-07-06T06:57:57.133Z,16.10
2018-07-06T06:58:57.160Z,19.30
2018-07-06T06:59:57.085Z,20.20
2018-07-06T07:00:57.085Z,15.10
2018-07-06T07:01:57.039Z,18.70
2018-07-06T07:02:57.011Z,17.40
2018-07-06T07:03:56.989Z,19.50
2018-07-06T07:04:56.966Z,20.40
2018-07-06T07:05:56.944Z,20.50
2018-07-06T07:06:56.917Z,15.90
2018-07-06T07:07:56.894Z,20.60
2018-07-06T07:08:56.872Z,19.40
2018-07-06T07:09:57.051Z,16.80
2018-07-06T07:10:56.828Z,15.90
2018-07-06T07:11:56.805Z,21.00
2018-07-06T07:12:56.779Z,16.80
2018-07-06T07:13:56.954Z,17.20
2018-07-06T07:14:56.727Z,17.90
2018-07-06T07:15:56.704Z,18.50
2018-07-06T07:16:56.682Z,17.80
2018-07-06T07:17:56.659Z,13.10
2018-07-06T07:18:56.635Z,13.70
2018-07-06T07:19:56.611Z,16.10
2018-07-06T07:20:56.590Z,20.50
2018-07-06T07:21:56.567Z,17.70
2018-07-06T07:22:56.540Z,17.40
2018-07-06T07:23:56.518Z,17.60
2018-07-06T07:24:56.492Z,21.40
2018-07-06T07:25:56.469Z,20.50
2018-07-06T07:26:56.446Z,14.30
2018-07-06T07:27:56.421Z,15.80
2018-07-06T07:28:56.602Z,23.30
2018-07-06T07:29:56.375Z,16.60
2018-07-06T07:30:56.352Z,18.00
2018-07-06T07:31:56.334Z,19.60
2018-07-06T07:32:56.307Z,14.40
2018-07-06T07:33:56.284Z,17.10
2018-07-06T07:34:56.256Z,17.20
2018-07-06T07:35:59.059Z,14.60
2018-07-06T07:36:56.213Z,16.40
2018-07-06T07:37:56.187Z,14.20
2018-07-06T07:38:56.192Z,15.90
2018-07-06T07:39:56.139Z,18.10
2018-07-06T07:40:56.124Z,14.60
2018-07-06T07:41:56.097Z,18.10
2018-07-06T07:42:56.071Z,13.80
2018-07-06T07:43:56.047Z,15.70
2018-07-06T07:44:56.023Z,13.20
2018-07-06T07:45:55.999Z,16.50
2018-07-06T07:46:56.177Z,19.20
2018-07-06T07:47:55.957Z,14.10
2018-07-06T07:48:55.931Z,14.60
2018-07-06T07:49:55.909Z,13.40
2018-07-06T07:50:55.885Z,14.00
2018-07-06T07:51:55.865Z,13.80
2018-07-06T07:52:55.841Z,13.10
2018-07-06T07:53:55.816Z,17.70
2018-07-06T07:54:55.793Z,14.80
2018-07-06T07:55:55.773Z,17.30
2018-07-06T07:56:55.745Z,15.30
2018-07-06T07:57:55.722Z,14.40
2018-07-06T07:58:55.698Z,12.70
2018-07-06T07:59:55.675Z,11.70
2018-07-06T08:00:55.793Z,13.40
2018-07-06T08:01:55.632Z,14.20
2018-07-06T08:02:55.609Z,15.30
2018-07-06T08:03:55.587Z,12.80
2018-07-06T08:04:55.581Z,13.20
2018-07-06T08:05:55.538Z,14.60
2018-07-06T08:06:55.519Z,14.50
2018-07-06T08:07:55.491Z,14.00
2018-07-06T08:08:55.691Z,14.10
2018-07-06T08:09:55.450Z,14.60
2018-07-06T08:10:55.437Z,15.80
2018-07-06T08:11:55.510Z,16.50
2018-07-06T08:12:55.381Z,14.50
2018-07-06T08:13:55.356Z,21.40
2018-07-06T08:14:55.333Z,21.70
2018-07-06T08:15:55.312Z,23.00
2018-07-06T08:16:56.312Z,14.80
2018-07-06T08:17:55.472Z,17.40
2018-07-06T08:18:55.246Z,16.90
2018-07-06T08:19:55.221Z,18.90
2018-07-06T08:20:55.203Z,14.10
2018-07-06T08:21:55.178Z,19.30
2018-07-06T08:22:55.152Z,17.00
2018-07-06T08:23:58.155Z,16.60
2018-07-06T08:24:55.313Z,13.60
2018-07-06T08:26:37.442Z,20.10
2018-07-06T08:27:37.420Z,18.60
2018-07-06T08:28:37.406Z,15.80
2018-07-06T08:29:37.380Z,19.00
2018-07-06T08:30:37.158Z,15.80
2018-07-06T08:31:37.234Z,15.40
2018-07-06T08:32:37.122Z,13.70
2018-07-06T08:33:37.297Z,17.30
2018-07-06T08:34:37.276Z,12.60
2018-07-06T08:35:37.053Z,10.90
2018-07-06T08:37:19.396Z,13.30
2018-07-06T08:39:01.530Z,15.80
2018-07-06T08:40:43.668Z,12.50
2018-07-06T08:41:44.459Z,11.90
2018-07-06T08:44:09.157Z,13.50
2018-07-06T08:46:32.238Z,15.50
2018-07-06T08:47:32.219Z,14.20
2018-07-06T08:48:31.999Z,14.10
2018-07-06T08:49:32.187Z,12.30
2018-07-06T08:50:31.968Z,19.90
2018-07-06T08:51:32.151Z,18.60
2018-07-06T08:52:31.935Z,13.80
2018-07-06T08:53:31.924Z,15.60
2018-07-06T08:54:31.904Z,14.00
2018-07-06T08:55:32.082Z,18.50
2018-07-06T08:56:32.065Z,15.30
2018-07-06T08:57:32.052Z,15.80
2018-07-06T08:58:32.107Z,13.10
2018-07-06T09:00:14.674Z,21.80
2018-07-06T09:01:14.157Z,21.80
2018-07-06T09:02:13.937Z,28.90
2018-07-06T09:03:14.126Z,14.90
2018-07-06T09:04:57.482Z,23.20
2018-07-06T09:05:56.048Z,22.10
2018-07-06T09:06:56.234Z,18.20
2018-07-06T09:07:56.019Z,13.70
2018-07-06T09:08:56.002Z,15.80
2018-07-06T09:10:40.966Z,16.00
2018-07-06T09:11:38.332Z,14.40
2018-07-06T09:12:38.117Z,14.20
2018-07-06T09:13:38.102Z,19.40
2018-07-06T09:14:38.290Z,26.80
2018-07-06T09:15:38.071Z,21.10
2018-07-06T09:16:38.054Z,19.60
2018-07-06T09:17:38.038Z,20.70
2018-07-06T09:18:38.223Z,15.90
2018-07-06T09:19:38.055Z,16.90
2018-07-06T09:20:38.197Z,13.20
2018-07-06T09:21:37.979Z,12.80
2018-07-06T09:22:37.962Z,18.70
2018-07-06T09:23:38.150Z,14.00
2018-07-06T09:24:37.934Z,30.20
2018-07-06T09:25:38.131Z,15.30
2018-07-06T09:26:38.107Z,18.70
2018-07-06T09:27:37.893Z,18.90
2018-07-06T09:28:38.078Z,27.70
2018-07-06T09:29:37.860Z,20.10
2018-07-06T09:30:37.844Z,16.10
2018-07-06T09:31:38.031Z,18.10
2018-07-06T09:32:38.017Z,20.00
2018-07-06T09:33:37.803Z,25.00
2018-07-06T09:34:37.790Z,26.70
2018-07-06T09:35:37.979Z,16.90
2018-07-06T09:36:37.759Z,19.00
2018-07-06T09:37:37.744Z,19.50
2018-07-06T09:38:37.933Z,19.90
2018-07-06T09:39:37.715Z,21.40
2018-07-06T09:40:37.701Z,26.60
2018-07-06T09:41:37.689Z,20.10
2018-07-06T09:42:37.876Z,36.60
2018-07-06T09:43:37.660Z,41.00
2018-07-06T09:44:37.645Z,36.30
2018-07-06T09:45:37.634Z,27.30
2018-07-06T09:46:37.621Z,24.90
2018-07-06T09:47:37.612Z,20.20
2018-07-06T09:48:37.594Z,17.80
2018-07-06T09:49:37.575Z,16.00
2018-07-06T09:50:37.565Z,23.60
2018-07-06T09:51:37.547Z,21.00
2018-07-06T09:52:37.533Z,23.40
2018-07-06T09:53:37.522Z,19.50
2018-07-06T09:54:37.508Z,18.00
2018-07-06T09:55:37.494Z,28.50
2018-07-06T09:56:37.480Z,46.50
2018-07-06T09:57:37.466Z,23.20
2018-07-06T09:58:37.496Z,23.10
2018-07-06T09:59:37.438Z,24.30
2018-07-06T10:00:37.424Z,32.20
2018-07-06T10:01:37.411Z,24.30
2018-07-06T10:02:37.396Z,22.30
2018-07-06T10:03:37.588Z,20.00
2018-07-06T10:04:38.192Z,31.40
2018-07-06T10:05:37.591Z,44.30
2018-07-06T10:06:37.550Z,31.80
2018-07-06T10:07:37.341Z,34.30
2018-07-06T10:08:37.318Z,25.10
2018-07-06T10:09:37.301Z,26.30
2018-07-06T10:10:37.297Z,20.70
2018-07-06T10:11:37.276Z,17.60
2018-07-06T10:12:37.324Z,20.20
2018-07-06T10:13:37.251Z,17.70
2018-07-06T10:14:37.236Z,14.90
2018-07-06T10:15:37.236Z,19.70
2018-07-06T10:16:37.411Z,24.90
2018-07-06T10:17:37.195Z,23.60
2018-07-06T10:18:37.387Z,23.10
2018-07-06T10:19:37.228Z,14.40
2018-07-06T10:20:37.153Z,23.40
2018-07-06T10:21:37.346Z,15.50
2018-07-06T10:22:37.331Z,20.30
2018-07-06T10:23:37.115Z,19.70
2018-07-06T10:24:37.305Z,20.00
2018-07-06T10:25:37.299Z,21.70
2018-07-06T10:26:37.072Z,18.30
2018-07-06T10:27:37.059Z,17.70
2018-07-06T10:28:37.247Z,17.70
2018-07-06T10:29:37.032Z,29.90
2018-07-06T10:30:37.018Z,42.70
2018-07-06T10:31:37.205Z,20.70
2018-07-06T10:32:37.193Z,16.10
2018-07-06T10:33:37.049Z,17.40
2018-07-06T10:34:37.170Z,15.70
2018-07-06T10:35:36.952Z,13.40
2018-07-06T10:36:36.939Z,16.50
2018-07-06T10:37:36.923Z,16.60
2018-07-06T10:38:36.920Z,15.80
2018-07-06T10:39:37.058Z,17.90
2018-07-06T10:40:37.085Z,22.20
2018-07-06T10:41:36.871Z,20.50
2018-07-06T10:42:36.863Z,17.90
2018-07-06T10:43:36.844Z,19.10
2018-07-06T10:44:36.830Z,22.10
2018-07-06T10:45:36.817Z,28.40
2018-07-06T10:46:36.855Z,23.50
2018-07-06T10:47:36.788Z,27.40
2018-07-06T10:48:36.984Z,24.30
2018-07-06T10:49:36.967Z,16.00
2018-07-06T10:50:36.749Z,26.80
2018-07-06T10:51:36.937Z,27.00
2018-07-06T10:52:36.923Z,31.60
2018-07-06T10:53:36.711Z,31.00
2018-07-06T10:54:36.697Z,24.60
2018-07-06T10:55:36.683Z,28.50
2018-07-06T10:56:36.677Z,34.00
2018-07-06T10:57:36.656Z,23.70
2018-07-06T10:58:36.645Z,36.20
2018-07-06T10:59:36.630Z,29.50
2018-07-06T11:00:36.617Z,19.20
2018-07-06T11:01:36.604Z,16.80
2018-07-06T11:02:36.593Z,25.90
2018-07-06T11:03:36.577Z,18.70
2018-07-06T11:04:36.567Z,17.70
2018-07-06T11:05:36.555Z,17.90
2018-07-06T11:06:36.542Z,20.50
2018-07-06T11:07:36.538Z,19.90
2018-07-06T11:08:36.514Z,17.20
2018-07-06T11:09:36.500Z,20.90
2018-07-06T11:10:36.486Z,17.80
2018-07-06T11:11:36.490Z,14.90
2018-07-06T11:12:36.663Z,17.20
2018-07-06T11:13:36.449Z,24.80
2018-07-06T11:14:36.446Z,19.70
2018-07-06T11:15:36.447Z,24.10
2018-07-06T11:16:36.409Z,21.80
2018-07-06T11:17:36.401Z,16.00
2018-07-06T11:18:36.384Z,19.40
2018-07-06T11:19:36.379Z,15.80
2018-07-06T11:20:36.360Z,18.10
2018-07-06T11:21:36.344Z,15.30
2018-07-06T11:22:36.538Z,23.10
2018-07-06T11:23:37.328Z,11.10
2018-07-06T11:24:36.507Z,19.70
2018-07-06T11:25:36.295Z,14.70
2018-07-06T11:26:36.281Z,17.20
2018-07-06T11:27:36.273Z,10.20
2018-07-06T11:28:36.253Z,16.10
2018-07-06T11:29:36.240Z,19.80
2018-07-06T11:30:36.226Z,21.40
2018-07-06T11:31:36.213Z,22.40
2018-07-06T11:32:36.201Z,13.50
2018-07-06T11:33:36.186Z,22.70
2018-07-06T11:34:36.175Z,16.40
2018-07-06T11:35:36.162Z,15.80
2018-07-06T11:36:36.149Z,18.00
2018-07-06T11:37:36.138Z,15.80
2018-07-06T11:38:36.126Z,18.70
2018-07-06T11:39:36.112Z,15.70
2018-07-06T11:40:36.099Z,18.60
2018-07-06T11:41:36.087Z,13.60
2018-07-06T11:42:36.071Z,18.30
2018-07-06T11:43:36.057Z,14.00
2018-07-06T11:44:36.043Z,16.40
2018-07-06T11:45:36.034Z,18.00
2018-07-06T11:46:36.024Z,16.40
2018-07-06T11:47:36.012Z,14.60
2018-07-06T11:48:35.995Z,16.40
2018-07-06T11:49:35.981Z,12.40
2018-07-06T11:50:36.872Z,17.60
2018-07-06T11:51:35.957Z,18.00
2018-07-06T11:52:35.942Z,18.90
2018-07-06T11:53:35.927Z,17.20
2018-07-06T11:54:35.914Z,16.00
2018-07-06T11:55:35.901Z,19.20
2018-07-06T11:56:35.889Z,17.90
2018-07-06T11:57:35.877Z,11.10
2018-07-06T11:58:35.866Z,11.50
2018-07-06T11:59:35.851Z,11.60
2018-07-06T12:00:35.837Z,13.90
2018-07-06T12:01:35.823Z,15.00
2018-07-06T12:02:35.811Z,17.20
2018-07-06T12:03:35.812Z,15.40
2018-07-06T12:04:35.906Z,17.60
2018-07-06T12:05:35.779Z,20.10
2018-07-06T12:06:35.761Z,15.70
2018-07-06T12:07:35.748Z,13.30
2018-07-06T12:08:35.735Z,13.30
2018-07-06T12:09:35.725Z,13.70
2018-07-06T12:10:35.712Z,17.10
2018-07-06T12:11:35.702Z,24.20
2018-07-06T12:12:35.687Z,11.00
2018-07-06T12:13:35.672Z,12.40
2018-07-06T12:14:35.666Z,14.40
2018-07-06T12:15:35.653Z,18.70
2018-07-06T12:16:35.637Z,14.50
2018-07-06T12:17:35.623Z,17.90
2018-07-06T12:18:35.610Z,17.90
2018-07-06T12:19:35.597Z,33.10
2018-07-06T12:20:35.596Z,20.20
2018-07-06T12:21:35.570Z,18.70
2018-07-06T12:22:35.568Z,15.70
2018-07-06T12:23:35.544Z,15.40
2018-07-06T12:24:35.534Z,11.70
2018-07-06T12:25:35.521Z,14.80
2018-07-06T12:26:35.510Z,17.60
2018-07-06T12:27:35.494Z,16.10
2018-07-06T12:28:35.481Z,17.40
2018-07-06T12:29:35.466Z,19.10
2018-07-06T12:30:35.455Z,19.90
2018-07-06T12:31:35.443Z,27.40
2018-07-06T12:32:35.428Z,12.40
2018-07-06T12:33:35.418Z,22.00
2018-07-06T12:34:35.408Z,20.50
2018-07-06T12:35:35.396Z,20.00
2018-07-06T12:36:35.378Z,13.10
2018-07-06T12:37:35.367Z,11.70
2018-07-06T12:38:35.351Z,14.50
2018-07-06T12:39:35.340Z,14.20
2018-07-06T12:40:35.326Z,17.80
2018-07-06T12:41:35.356Z,19.30
2018-07-06T12:42:35.299Z,14.70
2018-07-06T12:43:35.290Z,19.00
2018-07-06T12:44:35.272Z,20.40
2018-07-06T12:45:35.267Z,18.10
2018-07-06T12:46:35.252Z,25.90
2018-07-06T12:47:35.235Z,22.50
2018-07-06T12:48:35.221Z,17.30
2018-07-06T12:49:35.205Z,16.60
2018-07-06T12:50:35.192Z,12.20
2018-07-06T12:51:35.178Z,14.40
2018-07-06T12:52:35.164Z,15.40
2018-07-06T12:53:35.152Z,15.20
2018-07-06T12:54:35.153Z,14.00
2018-07-06T12:55:35.138Z,15.10
2018-07-06T12:56:35.114Z,13.90
2018-07-06T12:57:35.137Z,14.30
2018-07-06T12:58:35.153Z,16.00
2018-07-06T12:59:35.074Z,18.10
2018-07-06T13:00:35.059Z,19.60
2018-07-06T13:01:35.046Z,25.10
2018-07-06T13:04:41.725Z,17.10